ADDS METAR Data INFO
IDs: Format: Raw Decoded Include TAF

Data at: 2038 UTC 22 Feb 2018

KSEZ 222015Z AUTO 18017G21KT 10SM SCT070 07/M12 A3009 RMK AO2
KSEZ 221955Z AUTO 18009G19KT 130V220 10SM SCT070 06/M12 A3010 RMK AO2
KSEZ 221935Z AUTO 22007G16KT 180V250 10SM CLR 07/M12 A3011 RMK AO2
KSEZ 221915Z AUTO 21006G15KT 10SM CLR 06/M13 A3013 RMK AO2
KSEZ 221855Z AUTO 17011G18KT 10SM CLR 06/M11 A3014 RMK AO2
KSEZ 221835Z AUTO 24008G14KT 210V270 10SM CLR 05/M12 A3015 RMK AO2
KSEZ 221815Z AUTO 25005KT 10SM CLR 05/M13 A3015 RMK AO2
KSEZ 221755Z AUTO 26006KT 10SM CLR 03/M13 A3015 RMK AO2
KSEZ 221735Z AUTO 18008KT 10SM CLR 04/M13 A3015 RMK AO2
KSEZ 221715Z AUTO 16004KT 10SM CLR 04/M12 A3015 RMK AO2
KSEZ 221655Z AUTO 15004KT 10SM CLR 03/M13 A3014 RMK AO2
KSEZ 221635Z AUTO 18004KT 10SM CLR 02/M13 A3014 RMK AO2
KSEZ 221615Z AUTO 00000KT 10SM CLR 02/M13 A3013 RMK AO2
KSEZ 221555Z AUTO 00000KT 10SM CLR 01/M12 A3012 RMK AO2
KSEZ 221535Z AUTO 00000KT 10SM CLR 01/M12 A3012 RMK AO2
KSEZ 221515Z AUTO 00000KT 10SM CLR 00/M12 A3011 RMK AO2
KSEZ 221455Z AUTO 00000KT 10SM CLR 00/M13 A3010 RMK AO2
KSEZ 221435Z AUTO 00000KT 10SM CLR M01/M14 A3009 RMK AO2
KSEZ 221415Z AUTO 00000KT 10SM SCT065 M01/M14 A3008 RMK AO2
KSEZ 221355Z AUTO 00000KT 10SM CLR 00/M15 A3007 RMK AO2
KSEZ 221335Z AUTO 00000KT 10SM CLR 00/M15 A3006 RMK AO2
KSEZ 221315Z AUTO 00000KT 10SM CLR 00/M15 A3006 RMK AO2
KSEZ 221255Z AUTO 00000KT 10SM CLR 00/M15 A3005 RMK AO2
KSEZ 221235Z AUTO 00000KT 10SM CLR 00/M15 A3005 RMK AO2
KSEZ 221215Z AUTO 27003KT 10SM SCT090 00/M14 A3005 RMK AO2
KSEZ 221155Z AUTO 27003KT 10SM BKN090 00/M14 A3005 RMK AO2
KSEZ 221135Z AUTO 24003KT 10SM SCT090 00/M15 A3004 RMK AO2
KSEZ 221115Z AUTO 00000KT 10SM CLR 00/M15 A3003 RMK AO2
KSEZ 221055Z AUTO 00000KT 10SM SCT080 SCT090 00/M15 A3003 RMK AO2
KSEZ 221035Z AUTO 00000KT 10SM OVC090 00/M15 A3004 RMK AO2
KSEZ 221015Z AUTO 00000KT 10SM OVC090 00/M15 A3003 RMK AO2
KSEZ 220955Z AUTO 25003KT 10SM OVC090 00/M15 A3004 RMK AO2
KSEZ 220935Z AUTO 00000KT 10SM OVC090 00/M15 A3004 RMK AO2
KSEZ 220915Z AUTO 25004KT 10SM OVC090 00/M15 A3004 RMK AO2
KSEZ 220855Z AUTO 24003KT 10SM OVC090 01/M15 A3005 RMK AO2
KSEZ 220835Z AUTO 26006KT 10SM OVC090 01/M15 A3004 RMK AO2
KSEZ 220815Z AUTO 27005KT 10SM OVC090 01/M15 A3003 RMK AO2
KSEZ 220755Z AUTO 00000KT 10SM OVC090 01/M17 A3003 RMK AO2
KSEZ 220735Z AUTO 23003KT 10SM OVC090 01/M17 A3004 RMK AO2
KSEZ 220715Z AUTO 00000KT 10SM OVC090 01/M16 A3004 RMK AO2
KSEZ 220655Z AUTO 00000KT 10SM OVC090 02/M17 A3004 RMK AO2
KSEZ 220635Z AUTO 00000KT 10SM BKN090 OVC110 02/M16 A3005 RMK AO2
KSEZ 220615Z AUTO 00000KT 10SM OVC090 02/M16 A3005 RMK AO2
KSEZ 220555Z AUTO 00000KT 10SM BKN090 OVC110 02/M16 A3005 RMK AO2
KSEZ 220535Z AUTO 24003KT 10SM OVC100 02/M16 A3005 RMK AO2
KSEZ 220515Z AUTO 00000KT 10SM OVC100 02/M16 A3006 RMK AO2
KSEZ 220455Z AUTO 23004KT 10SM BKN100 02/M15 A3005 RMK AO2
KSEZ 220435Z AUTO 23005KT 10SM OVC090 02/M13 A3005 RMK AO2
KSEZ 220415Z AUTO 22004KT 10SM OVC100 03/M14 A3005 RMK AO2
KSEZ 220355Z AUTO 17004KT 10SM OVC100 03/M13 A3004 RMK AO2
KSEZ 220035Z AUTO 21010KT 10SM OVC090 05/M13 A3000 RMK AO2
KSEZ 220015Z AUTO 19008G14KT 10SM OVC100 06/M13 A2999 RMK AO2
KSEZ 212355Z AUTO 19008KT 10SM BKN110 06/M13 A2999 RMK AO2
KSEZ 212335Z AUTO 18007G14KT 140V200 10SM BKN110 06/M12 A3000 RMK AO2
KSEZ 212315Z AUTO 21006KT 10SM BKN110 06/M11 A3000 RMK AO2
KSEZ 212255Z AUTO 20007G15KT 10SM SCT110 06/M10 A3000 RMK AO2
KSEZ 212235Z AUTO 22008G14KT 190V250 10SM SCT110 07/M10 A2999 RMK AO2
KSEZ 212215Z AUTO 19006KT 10SM SCT065 SCT100 07/M10 A3000 RMK AO2
KSEZ 212155Z AUTO 18006KT 10SM BKN065 BKN110 07/M10 A3000 RMK AO2
KSEZ 212135Z AUTO 19008G18KT 10SM BKN065 BKN110 07/M10 A3000 RMK AO2
KSEZ 212115Z AUTO 19008G15KT 10SM SCT065 07/M10 A3000 RMK AO2
KSEZ 212055Z AUTO 21004KT 10SM CLR 07/M10 A3001 RMK AO2
KSEZ 212035Z AUTO 24008KT 160V270 10SM SCT065 SCT095 06/M10 A3002 RMK AO2
KSEZ 212015Z AUTO 24007G20KT 200V270 10SM CLR 06/M11 A3003 RMK AO2
KSEZ 211955Z AUTO 14006KT 10SM SCT120 07/M10 A3004 RMK AO2
KSEZ 211935Z AUTO 22007KT 170V280 10SM SCT120 07/M10 A3004 RMK AO2
KSEZ 211915Z AUTO 17004G16KT 10SM CLR 07/M10 A3005 RMK AO2
KSEZ 211855Z AUTO 17009G14KT 10SM CLR 07/M10 A3005 RMK AO2
KSEZ 211835Z AUTO 19010G15KT 10SM CLR 07/M11 A3006 RMK AO2
KSEZ 211815Z AUTO 17007KT 130V200 10SM CLR 06/M11 A3007 RMK AO2
KSEZ 211755Z AUTO 19007KT 10SM CLR 06/M11 A3007 RMK AO2
KSEZ 211735Z AUTO 20005KT 10SM CLR 05/M10 A3008 RMK AO2
KSEZ 211715Z AUTO 16006KT 10SM CLR 03/M11 A3008 RMK AO2
KSEZ 211655Z AUTO 14004KT 10SM CLR 03/M11 A3008 RMK AO2
KSEZ 211635Z AUTO 16003KT 10SM CLR 02/M12 A3007 RMK AO2
KSEZ 211615Z AUTO 14003KT 10SM CLR 01/M11 A3007 RMK AO2
KSEZ 211555Z AUTO 14003KT 10SM CLR 01/M12 A3006 RMK AO2
KSEZ 211535Z AUTO 35003KT 10SM CLR 00/M13 A3006 RMK AO2
KSEZ 211515Z AUTO 02005KT 10SM CLR 00/M14 A3005 RMK AO2
KSEZ 211455Z AUTO 03005KT 10SM CLR 00/M15 A3004 RMK AO2
KSEZ 211435Z AUTO 04005KT 10SM CLR M01/M15 A3004 RMK AO2
KSEZ 211415Z AUTO 04005KT 10SM CLR M01/M15 A3004 RMK AO2
KSEZ 211355Z AUTO 05007KT 10SM CLR M01/M15 A3004 RMK AO2
KSEZ 211335Z AUTO 04008KT 10SM CLR M01/M15 A3004 RMK AO2
KSEZ 211315Z AUTO 04009KT 10SM CLR M01/M15 A3003 RMK AO2
KSEZ 211255Z AUTO 04010KT 10SM CLR M01/M15 A3003 RMK AO2